Time;durP1;ratioP1;P1;durP2;ratioP2;P2;SDS_P1;SDS_P2;PMS_P1;PMS_P2;Temp;Humidity;BMP_temperature;BMP_pressure;BME280_temperature;BME280_humidity;BME280_pressure;Samples;Min_cycle;Max_cycle;Signal;HPM_P1;HPM_P2
2022/03/20 00:02:16;;;;;;;6.68;1.58;;;22.90;99.90;;;;;;5028273;28;20187;-79
2022/03/20 00:04:49;;;;;;;10.10;1.50;;;23.00;99.90;;;;;;5033375;28;20183;-82
2022/03/20 00:07:20;;;;;;;8.68;1.40;;;23.20;99.90;;;;;;5022962;28;20199;-80
2022/03/20 00:09:54;;;;;;;10.02;1.20;;;23.30;99.90;;;;;;5023851;28;20253;-80
2022/03/20 00:12:25;;;;;;;6.03;1.10;;;23.40;99.90;;;;;;5020105;28;20278;-81
2022/03/20 00:14:57;;;;;;;9.60;2.30;;;23.40;99.90;;;;;;5014135;28;20199;-79
2022/03/20 00:17:28;;;;;;;8.00;1.33;;;23.40;99.90;;;;;;5028904;28;20597;-82
2022/03/20 00:19:59;;;;;;;7.35;1.60;;;23.20;99.90;;;;;;5023824;28;20205;-75
2022/03/20 00:22:34;;;;;;;7.95;1.40;;;23.10;99.90;;;;;;5027048;28;20221;-76
2022/03/20 00:25:05;;;;;;;6.57;1.35;;;23.20;99.90;;;;;;5022645;28;20251;-76
2022/03/20 00:27:36;;;;;;;7.47;1.50;;;23.10;99.90;;;;;;5014965;28;20202;-75
2022/03/20 00:30:09;;;;;;;7.43;2.35;;;23.10;99.90;;;;;;5023985;28;20186;-80
2022/03/20 00:32:39;;;;;;;6.63;1.42;;;23.00;99.90;;;;;;5034404;28;20191;-74
2022/03/20 00:35:10;;;;;;;8.63;1.23;;;22.90;99.90;;;;;;5014777;28;20191;-82
2022/03/20 00:37:41;;;;;;;7.47;1.20;;;22.90;99.90;;;;;;5014935;28;20190;-78
2022/03/20 00:40:12;;;;;;;7.75;1.35;;;22.90;99.90;;;;;;5032136;28;20195;-73
2022/03/20 00:42:43;;;;;;;6.53;1.23;;;23.00;99.90;;;;;;5018722;28;20191;-75
2022/03/20 00:45:19;;;;;;;5.80;1.05;;;23.00;99.90;;;;;;5022712;28;20693;-76
2022/03/20 00:47:50;;;;;;;6.47;1.17;;;23.00;99.90;;;;;;5018683;28;20637;-81
2022/03/20 00:50:23;;;;;;;10.68;1.30;;;22.90;99.90;;;;;;5016274;28;20237;-73
2022/03/20 00:52:57;;;;;;;5.65;1.20;;;23.10;99.90;;;;;;5027815;28;20194;-73
2022/03/20 00:55:29;;;;;;;6.60;1.38;;;23.20;99.90;;;;;;5029033;28;20188;-80
2022/03/20 00:58:00;;;;;;;4.88;1.30;;;23.40;99.90;;;;;;5018179;28;20265;-74
2022/03/20 01:00:35;;;;;;;5.72;1.10;;;23.60;99.90;;;;;;5023234;28;20194;-76
2022/03/20 01:03:05;;;;;;;6.32;1.30;;;23.60;99.90;;;;;;5018627;28;20253;-77
2022/03/20 01:05:36;;;;;;;6.45;1.30;;;23.80;99.90;;;;;;5022026;28;20209;-75
2022/03/20 01:08:07;;;;;;;8.15;1.38;;;23.90;99.90;;;;;;5022491;28;20190;-74
2022/03/20 01:10:38;;;;;;;7.13;1.35;;;24.00;99.90;;;;;;5010727;28;20209;-81
2022/03/20 01:13:09;;;;;;;6.95;1.33;;;24.10;99.90;;;;;;5030689;28;20191;-74
2022/03/20 01:15:41;;;;;;;5.95;1.38;;;24.20;99.90;;;;;;5027393;28;20261;-80
2022/03/20 01:18:12;;;;;;;8.27;1.75;;;24.00;99.90;;;;;;5015880;28;20222;-82
2022/03/20 01:20:43;;;;;;;6.10;1.77;;;23.90;99.90;;;;;;5013996;28;20607;-79
2022/03/20 01:23:16;;;;;;;6.00;1.33;;;23.80;99.90;;;;;;5017812;28;20245;-76
2022/03/20 01:25:49;;;;;;;7.55;1.20;;;24.00;99.90;;;;;;5028674;28;20190;-78
2022/03/20 01:28:21;;;;;;;7.05;1.50;;;24.20;99.90;;;;;;5013333;28;20223;-78
2022/03/20 01:30:55;;;;;;;7.75;1.15;;;24.40;99.90;;;;;;5013876;28;20192;-79
2022/03/20 01:33:25;;;;;;;6.13;1.20;;;24.60;99.90;;;;;;5020366;28;20190;-76
2022/03/20 01:35:56;;;;;;;6.63;1.27;;;24.80;99.90;;;;;;5017628;28;20212;-74
2022/03/20 01:38:27;;;;;;;8.98;1.42;;;24.80;99.90;;;;;;5010969;28;20207;-75
2022/03/20 01:40:57;;;;;;;8.73;1.30;;;24.60;99.90;;;;;;5010575;28;20267;-80
2022/03/20 01:43:31;;;;;;;7.25;1.40;;;24.40;99.90;;;;;;5018315;28;20187;-76
2022/03/20 01:46:03;;;;;;;8.10;1.30;;;24.30;99.90;;;;;;5018384;28;20245;-81
2022/03/20 01:48:34;;;;;;;7.47;1.33;;;24.40;99.90;;;;;;5019497;28;20191;-78
2022/03/20 01:51:04;;;;;;;8.25;1.33;;;24.70;99.90;;;;;;5017440;28;20560;-76
2022/03/20 01:53:35;;;;;;;8.52;1.88;;;24.50;99.90;;;;;;5017109;28;20201;-75
2022/03/20 01:56:06;;;;;;;7.25;1.48;;;24.40;99.90;;;;;;5014339;28;20290;-81
2022/03/20 01:58:37;;;;;;;11.38;2.00;;;24.50;99.90;;;;;;5017521;28;20207;-73
2022/03/20 02:01:09;;;;;;;9.10;1.58;;;24.60;99.90;;;;;;5022815;28;20191;-75
2022/03/20 02:03:40;;;;;;;5.82;1.23;;;24.70;99.90;;;;;;5015427;28;20664;-76
2022/03/20 02:06:11;;;;;;;6.65;1.52;;;24.90;99.90;;;;;;5021768;28;20190;-78
2022/03/20 02:08:41;;;;;;;5.80;1.23;;;24.90;99.90;;;;;;5014599;28;20642;-78
2022/03/20 02:11:12;;;;;;;6.95;1.42;;;24.90;99.90;;;;;;5016827;28;20203;-75
2022/03/20 02:13:43;;;;;;;5.03;0.90;;;24.90;99.90;;;;;;5030068;28;20191;-73
2022/03/20 02:16:16;;;;;;;7.97;1.20;;;25.00;99.90;;;;;;5026309;28;20187;-77
2022/03/20 02:18:48;;;;;;;4.30;1.00;;;24.90;99.90;;;;;;5011158;28;20210;-77
2022/03/20 02:21:39;;;;;;;6.95;1.35;;;24.80;99.90;;;;;;5017663;28;20218;-75
2022/03/20 02:24:39;;;;;;;6.35;1.25;;;24.80;99.90;;;;;;5021715;28;20203;-75
2022/03/20 02:27:15;;;;;;;5.95;1.40;;;24.80;99.90;;;;;;5012266;28;20190;-72
2022/03/20 02:29:46;;;;;;;5.95;1.27;;;24.70;99.90;;;;;;5014359;28;20199;-74
2022/03/20 02:32:19;;;;;;;5.60;1.13;;;24.80;99.90;;;;;;5013946;28;20187;-76
2022/03/20 02:34:50;;;;;;;4.13;1.08;;;24.80;99.90;;;;;;5018225;28;20187;-79
2022/03/20 02:37:24;;;;;;;6.47;1.20;;;25.00;99.90;;;;;;5017123;28;20195;-76
2022/03/20 02:39:58;;;;;;;5.60;1.10;;;25.00;99.90;;;;;;5016269;28;20234;-76
2022/03/20 02:42:30;;;;;;;6.45;1.20;;;24.90;99.90;;;;;;5011132;28;20238;-78
2022/03/20 02:45:03;;;;;;;7.30;1.30;;;25.00;99.90;;;;;;5013160;28;20416;-81
2022/03/20 02:47:35;;;;;;;5.10;1.15;;;25.00;99.90;;;;;;5012452;28;20226;-80
2022/03/20 02:50:08;;;;;;;6.93;1.40;;;24.90;99.90;;;;;;5018958;28;20190;-81
2022/03/20 02:52:51;;;;;;;6.82;1.55;;;25.10;99.90;;;;;;5017490;28;20198;-80
2022/03/20 02:55:25;;;;;;;5.85;1.40;;;25.20;99.90;;;;;;5012346;28;20282;-75
2022/03/20 02:57:57;;;;;;;6.95;1.50;;;25.10;99.90;;;;;;5016101;28;20191;-81
2022/03/20 03:00:29;;;;;;;9.75;1.42;;;25.10;99.90;;;;;;5023557;28;20268;-82
2022/03/20 03:03:00;;;;;;;7.25;1.30;;;25.10;99.90;;;;;;5013198;28;20191;-81
2022/03/20 03:05:32;;;;;;;7.18;1.30;;;25.10;99.90;;;;;;5016042;28;20190;-81
2022/03/20 03:10:59;;;;;;;7.43;1.23;;;25.10;99.90;;;;;;5015897;28;20201;-80
2022/03/20 03:13:31;;;;;;;4.70;1.02;;;25.00;99.90;;;;;;5013576;28;20661;-81
2022/03/20 03:16:03;;;;;;;12.18;2.42;;;24.90;99.90;;;;;;5015194;28;20659;-82
2022/03/20 03:18:34;;;;;;;4.95;1.00;;;25.00;99.90;;;;;;5019251;28;20217;-83
2022/03/20 03:21:04;;;;;;;7.10;1.23;;;24.90;99.90;;;;;;5014658;28;20198;-81
2022/03/20 03:23:39;;;;;;;8.63;1.50;;;24.90;99.90;;;;;;5021188;28;20198;-79
2022/03/20 03:26:10;;;;;;;6.68;1.35;;;24.80;99.90;;;;;;5016764;28;20187;-81
2022/03/20 03:28:41;;;;;;;7.90;1.33;;;24.80;99.90;;;;;;5015469;28;20191;-83
2022/03/20 03:31:14;;;;;;;4.40;1.38;;;24.80;99.90;;;;;;5015655;28;20187;-81
2022/03/20 03:36:29;;;;;;;7.43;1.20;;;24.70;99.90;;;;;;5014878;28;20266;-82
2022/03/20 03:39:01;;;;;;;7.18;1.17;;;24.80;99.90;;;;;;5014720;28;20580;-77
2022/03/20 03:41:32;;;;;;;5.63;1.20;;;24.80;99.90;;;;;;5014889;28;20237;-81
2022/03/20 03:44:02;;;;;;;5.50;1.35;;;24.80;99.90;;;;;;5013327;28;20190;-81
2022/03/20 03:46:33;;;;;;;7.38;1.20;;;24.70;99.90;;;;;;5014364;28;20234;-81
2022/03/20 03:49:05;;;;;;;6.40;1.10;;;24.70;99.90;;;;;;5019585;28;20244;-79
2022/03/20 03:51:38;;;;;;;4.57;1.20;;;24.80;99.90;;;;;;5016957;28;20199;-81
2022/03/20 03:54:12;;;;;;;7.15;1.10;;;24.70;99.90;;;;;;5012929;28;20642;-82
2022/03/20 03:56:42;;;;;;;5.32;1.20;;;24.70;99.90;;;;;;5014938;28;20202;-74
2022/03/20 03:59:13;;;;;;;7.03;1.40;;;24.60;99.90;;;;;;5017469;28;20215;-81
2022/03/20 04:01:43;;;;;;;8.48;1.42;;;24.60;99.90;;;;;;5013920;28;20669;-82
2022/03/20 04:04:14;;;;;;;4.40;1.30;;;24.50;99.90;;;;;;5013920;28;20195;-83
2022/03/20 04:06:45;;;;;;;5.90;1.25;;;24.50;99.90;;;;;;5014247;28;20203;-80
2022/03/20 04:09:18;;;;;;;6.60;1.25;;;24.50;99.90;;;;;;5017575;28;20810;-77
2022/03/20 04:11:48;;;;;;;8.00;1.27;;;24.50;99.90;;;;;;5016776;28;20195;-81
2022/03/20 04:14:20;;;;;;;7.53;1.40;;;24.40;99.90;;;;;;5016714;28;20573;-84
2022/03/20 04:16:51;;;;;;;7.55;1.27;;;24.30;99.90;;;;;;5015279;28;20270;-80
2022/03/20 04:19:21;;;;;;;7.00;1.10;;;24.30;99.90;;;;;;5012921;28;20685;-81
2022/03/20 04:21:52;;;;;;;8.57;1.25;;;24.20;99.90;;;;;;5015942;28;20669;-81
2022/03/20 04:24:25;;;;;;;5.43;1.30;;;24.20;99.90;;;;;;5012339;28;20637;-81
2022/03/20 04:26:57;;;;;;;6.97;1.20;;;24.20;99.90;;;;;;5013435;28;20191;-76
2022/03/20 04:29:28;;;;;;;6.60;1.20;;;24.10;99.90;;;;;;5014217;28;20214;-82
2022/03/20 04:31:59;;;;;;;4.15;1.20;;;24.00;99.90;;;;;;5013139;28;20720;-76
2022/03/20 04:34:29;;;;;;;8.98;1.40;;;24.20;99.90;;;;;;5015024;28;20221;-81
2022/03/20 04:37:04;;;;;;;6.55;1.52;;;24.30;99.90;;;;;;5014909;28;20187;-81
2022/03/20 04:39:38;;;;;;;7.80;1.30;;;24.20;99.90;;;;;;5015932;28;20215;-82
2022/03/20 04:42:10;;;;;;;7.55;1.40;;;24.20;99.90;;;;;;5016451;28;20198;-83
2022/03/20 04:44:41;;;;;;;8.13;1.67;;;24.10;99.90;;;;;;5013296;28;20223;-82
2022/03/20 04:58:29;;;;;;;9.30;1.42;;;24.10;99.90;;;;;;5013528;28;20277;-82
2022/03/20 04:58:33;;;;;;;8.63;2.00;;;23.90;99.90;;;;;;5014342;28;20234;-74
2022/03/20 05:01:04;;;;;;;6.97;1.67;;;24.00;99.90;;;;;;5013137;28;20249;-76
2022/03/20 05:03:35;;;;;;;7.50;1.52;;;24.00;99.90;;;;;;5013396;28;20194;-75
2022/03/20 05:06:06;;;;;;;7.68;1.20;;;24.00;99.90;;;;;;5013419;28;20278;-75
2022/03/20 05:08:37;;;;;;;5.18;1.17;;;24.00;99.90;;;;;;5012892;28;20282;-78
2022/03/20 05:13:56;;;;;;;11.32;1.70;;;23.90;99.90;;;;;;5011512;28;20257;-76
2022/03/20 05:16:27;;;;;;;8.65;1.42;;;23.90;99.90;;;;;;5013508;28;20190;-77
2022/03/20 05:18:57;;;;;;;6.97;1.60;;;23.80;99.90;;;;;;5010133;28;20191;-75
2022/03/20 05:21:28;;;;;;;9.90;1.70;;;23.90;99.90;;;;;;5017239;28;20190;-74
2022/03/20 05:23:59;;;;;;;8.63;1.63;;;23.80;99.90;;;;;;5011811;28;20191;-74
2022/03/20 05:26:31;;;;;;;10.13;1.40;;;23.80;99.90;;;;;;5011486;28;20187;-77
2022/03/20 05:29:03;;;;;;;8.35;1.30;;;23.70;99.90;;;;;;5014515;28;20188;-77
2022/03/20 05:31:34;;;;;;;6.53;1.75;;;23.70;99.90;;;;;;5014083;28;20244;-76
2022/03/20 05:34:05;;;;;;;10.70;1.80;;;23.70;99.90;;;;;;5014989;28;20191;-74
2022/03/20 05:36:36;;;;;;;6.93;1.40;;;23.70;99.90;;;;;;5012643;28;20187;-75
2022/03/20 05:39:07;;;;;;;6.53;1.23;;;23.70;99.90;;;;;;5013319;28;20198;-76
2022/03/20 05:41:46;;;;;;;8.07;1.30;;;23.70;99.90;;;;;;5013360;28;20253;-75
2022/03/20 05:44:21;;;;;;;7.20;1.40;;;23.70;99.90;;;;;;5012687;28;20592;-78
2022/03/20 05:46:53;;;;;;;8.63;1.40;;;23.60;99.90;;;;;;5012153;28;20563;-77
2022/03/20 05:49:25;;;;;;;5.72;1.40;;;23.70;99.90;;;;;;5010485;28;20221;-79
2022/03/20 05:51:57;;;;;;;6.28;1.40;;;23.60;99.90;;;;;;5014956;28;20187;-73
2022/03/20 05:54:28;;;;;;;7.30;1.63;;;23.60;99.90;;;;;;5011063;28;20237;-78
2022/03/20 05:59:47;;;;;;;10.43;1.67;;;23.50;99.90;;;;;;5020748;28;20325;-77
2022/03/20 06:02:18;;;;;;;7.93;1.60;;;23.40;99.90;;;;;;5024258;28;20241;-74
2022/03/20 06:04:49;;;;;;;7.07;1.40;;;23.40;99.90;;;;;;5010099;28;20203;-77
2022/03/20 06:07:19;;;;;;;9.27;1.80;;;23.40;99.90;;;;;;5014106;28;20191;-76
2022/03/20 06:09:50;;;;;;;12.60;1.73;;;23.40;99.90;;;;;;5015692;28;20195;-73
2022/03/20 06:12:22;;;;;;;9.55;1.65;;;23.30;99.90;;;;;;5016673;28;20720;-77
2022/03/20 06:14:53;;;;;;;9.18;1.80;;;23.40;99.90;;;;;;5006703;28;20653;-79
2022/03/20 06:17:25;;;;;;;9.68;2.00;;;23.30;99.90;;;;;;5015864;28;20217;-77
2022/03/20 06:19:56;;;;;;;8.15;1.40;;;23.30;99.90;;;;;;5017217;28;20237;-75
2022/03/20 06:22:27;;;;;;;9.25;1.85;;;23.30;99.90;;;;;;5023907;28;20201;-84
2022/03/20 06:24:57;;;;;;;11.50;1.60;;;23.30;99.90;;;;;;5024888;28;20202;-78
2022/03/20 06:27:30;;;;;;;8.68;1.48;;;23.30;99.90;;;;;;5024802;28;20193;-76
2022/03/20 06:30:00;;;;;;;11.63;1.98;;;23.20;99.90;;;;;;5017782;28;20220;-74
2022/03/20 06:32:31;;;;;;;12.30;2.97;;;23.20;99.90;;;;;;5032530;28;20194;-74
2022/03/20 06:35:01;;;;;;;7.30;1.33;;;23.20;99.90;;;;;;5017029;28;20225;-73
2022/03/20 06:37:36;;;;;;;9.45;1.63;;;23.20;99.90;;;;;;5019627;28;20662;-75
2022/03/20 06:40:08;;;;;;;6.38;1.25;;;23.30;99.90;;;;;;5017067;28;20691;-73
2022/03/20 06:42:41;;;;;;;7.35;1.70;;;23.20;99.90;;;;;;5017174;28;20635;-76
2022/03/20 06:45:14;;;;;;;9.20;1.52;;;23.10;99.90;;;;;;5023925;28;20216;-74
2022/03/20 06:47:45;;;;;;;5.63;1.38;;;23.00;99.90;;;;;;5018533;28;20575;-78
2022/03/20 06:50:17;;;;;;;6.78;1.30;;;22.90;99.90;;;;;;5021220;28;20531;-75
2022/03/20 06:52:48;;;;;;;9.23;1.95;;;22.90;99.90;;;;;;5029843;28;20568;-76
2022/03/20 06:55:18;;;;;;;8.70;1.90;;;22.90;99.90;;;;;;5016908;28;20230;-74
2022/03/20 06:57:51;;;;;;;7.00;1.50;;;22.90;99.90;;;;;;5016121;28;20219;-74
2022/03/20 07:00:22;;;;;;;10.55;1.50;;;22.90;99.90;;;;;;5015333;28;20211;-76
2022/03/20 07:02:53;;;;;;;7.43;1.70;;;22.80;99.90;;;;;;5014543;28;20222;-75
2022/03/20 07:05:24;;;;;;;9.77;1.80;;;22.80;99.90;;;;;;5021605;28;20207;-74
2022/03/20 07:07:55;;;;;;;7.13;1.65;;;22.80;99.90;;;;;;5014853;28;20195;-77
2022/03/20 07:10:26;;;;;;;8.30;1.48;;;22.80;99.90;;;;;;5023193;28;20183;-75
2022/03/20 07:15:42;;;;;;;6.25;1.48;;;22.80;99.90;;;;;;5019682;28;20201;-74
2022/03/20 07:18:13;;;;;;;5.43;1.40;;;22.70;99.90;;;;;;5022296;28;20700;-79
2022/03/20 07:20:47;;;;;;;6.47;1.50;;;22.70;99.90;;;;;;5011055;28;20215;-77
2022/03/20 07:23:18;;;;;;;7.65;1.30;;;22.60;99.90;;;;;;5015562;28;20195;-75
2022/03/20 07:31:24;;;;;;;6.63;1.20;;;22.40;99.90;;;;;;5012641;28;20203;-73
2022/03/20 07:33:54;;;;;;;9.30;1.45;;;22.30;99.90;;;;;;5016471;28;20198;-73
2022/03/20 07:36:25;;;;;;;7.13;1.67;;;22.30;99.90;;;;;;5023382;28;20712;-76
2022/03/20 07:38:56;;;;;;;9.05;1.80;;;22.20;99.90;;;;;;5012309;28;20207;-78
2022/03/20 07:41:26;;;;;;;8.55;1.60;;;22.20;99.90;;;;;;5013023;28;20226;-76
2022/03/20 07:43:59;;;;;;;5.45;1.23;;;22.20;99.90;;;;;;5025010;22;20239;-85
2022/03/20 07:46:29;;;;;;;6.57;1.30;;;22.10;99.90;;;;;;4992446;28;20196;-85
2022/03/20 07:49:00;;;;;;;8.73;1.58;;;22.10;99.90;;;;;;4987825;28;20195;-83
2022/03/20 07:51:32;;;;;;;10.55;1.58;;;22.00;99.90;;;;;;4988377;28;20668;-86
2022/03/20 07:54:02;;;;;;;7.93;1.50;;;22.00;99.90;;;;;;4992708;28;20289;-87
2022/03/20 07:56:35;;;;;;;5.38;1.60;;;21.90;99.90;;;;;;4992475;28;20192;-84
2022/03/20 07:59:09;;;;;;;8.50;1.50;;;21.90;99.90;;;;;;4985547;28;20227;-85
2022/03/20 08:01:40;;;;;;;6.93;1.27;;;21.80;99.90;;;;;;4992221;28;20228;-87
2022/03/20 08:04:11;;;;;;;13.77;1.70;;;21.70;99.90;;;;;;4991921;28;20195;-86
2022/03/20 08:06:41;;;;;;;6.35;1.35;;;21.70;99.90;;;;;;4992982;28;20199;-87
2022/03/20 08:09:12;;;;;;;7.70;1.60;;;21.70;99.90;;;;;;4992360;28;20214;-88
2022/03/20 08:11:43;;;;;;;10.32;1.65;;;21.60;99.90;;;;;;4993196;28;21579;-86
2022/03/20 08:14:15;;;;;;;6.25;1.65;;;21.50;99.90;;;;;;4995801;28;20203;-87
2022/03/20 08:16:47;;;;;;;8.75;2.00;;;21.50;99.90;;;;;;4997235;28;20258;-89
2022/03/20 08:19:19;;;;;;;7.45;1.52;;;21.50;99.90;;;;;;4994101;28;20200;-89
2022/03/20 08:21:50;;;;;;;5.72;1.40;;;21.50;99.90;;;;;;4995053;28;20262;-84
2022/03/20 08:24:21;;;;;;;8.18;1.58;;;21.40;99.90;;;;;;4990926;28;20200;-86
2022/03/20 08:26:51;;;;;;;8.88;1.67;;;21.40;99.90;;;;;;4992755;28;20203;-87
2022/03/20 08:29:24;;;;;;;9.13;1.60;;;21.40;99.90;;;;;;4993288;28;20725;-85
2022/03/20 08:31:56;;;;;;;7.40;1.48;;;21.40;99.90;;;;;;4994996;28;20203;-88
2022/03/20 08:34:26;;;;;;;9.07;1.42;;;21.40;99.90;;;;;;4992885;28;20654;-83
2022/03/20 08:36:57;;;;;;;8.10;1.27;;;21.40;99.90;;;;;;4990651;28;20200;-79
2022/03/20 08:39:27;;;;;;;8.55;1.35;;;21.40;99.90;;;;;;4990834;28;20211;-81
2022/03/20 08:41:58;;;;;;;7.60;1.10;;;21.40;99.90;;;;;;4991274;28;20226;-85
2022/03/20 08:44:31;;;;;;;6.43;1.20;;;21.50;99.90;;;;;;4990484;28;20285;-84
2022/03/20 08:47:02;;;;;;;5.40;1.30;;;21.50;99.90;;;;;;4991526;28;20270;-84
2022/03/20 08:49:32;;;;;;;9.75;1.38;;;21.50;99.90;;;;;;4993644;28;20274;-81
2022/03/20 08:52:03;;;;;;;4.43;1.25;;;21.50;99.90;;;;;;4986392;28;20611;-83
2022/03/20 08:54:34;;;;;;;5.07;1.08;;;21.50;99.90;;;;;;4989593;28;20199;-86
2022/03/20 08:57:06;;;;;;;6.40;1.35;;;21.50;99.90;;;;;;4989986;28;20196;-83
2022/03/20 08:59:38;;;;;;;9.18;1.45;;;21.50;99.90;;;;;;4993493;28;20195;-86
2022/03/20 09:02:09;;;;;;;5.75;1.08;;;21.50;99.90;;;;;;4990232;28;20266;-81
2022/03/20 09:04:40;;;;;;;5.38;0.90;;;21.60;99.90;;;;;;4990566;28;20188;-85
2022/03/20 09:07:10;;;;;;;4.55;1.02;;;21.50;99.90;;;;;;4991661;28;20199;-85
2022/03/20 09:09:41;;;;;;;6.22;1.15;;;21.50;99.90;;;;;;4992962;28;20647;-85
2022/03/20 09:12:12;;;;;;;6.05;1.02;;;21.50;99.90;;;;;;4993888;28;20270;-85
2022/03/20 09:14:45;;;;;;;6.95;1.00;;;21.50;99.90;;;;;;4993336;28;20192;-85
2022/03/20 09:20:02;;;;;;;6.97;1.15;;;21.40;99.90;;;;;;4993821;28;20326;-83
2022/03/20 09:22:34;;;;;;;4.13;1.00;;;21.40;99.90;;;;;;4991779;28;20250;-84
2022/03/20 09:25:04;;;;;;;6.18;1.30;;;21.40;99.90;;;;;;4992695;28;20195;-85
2022/03/20 09:27:35;;;;;;;7.95;1.20;;;21.40;99.90;;;;;;4991523;28;20192;-85
2022/03/20 09:30:09;;;;;;;7.57;1.10;;;21.40;99.90;;;;;;4992343;28;20208;-84
2022/03/20 09:32:39;;;;;;;7.55;1.10;;;21.40;99.90;;;;;;4990725;28;20279;-83
2022/03/20 09:35:10;;;;;;;4.65;0.88;;;21.30;99.90;;;;;;4989362;28;20568;-83
2022/03/20 09:37:43;;;;;;;4.63;0.90;;;21.30;99.90;;;;;;4991512;28;20269;-85
2022/03/20 09:40:15;;;;;;;6.35;1.45;;;21.30;99.90;;;;;;4991067;28;20248;-83
2022/03/20 09:42:46;;;;;;;7.68;1.15;;;21.30;99.90;;;;;;4988416;28;20194;-85
2022/03/20 09:45:21;;;;;;;5.75;1.00;;;21.30;99.90;;;;;;4992261;28;20274;-85
2022/03/20 09:47:52;;;;;;;6.15;1.00;;;21.20;99.90;;;;;;4988700;28;20199;-82
2022/03/20 09:50:24;;;;;;;4.80;1.10;;;21.20;99.90;;;;;;4993238;28;20635;-85
2022/03/20 09:52:54;;;;;;;5.65;0.90;;;21.20;99.90;;;;;;4989582;28;20200;-84
2022/03/20 09:55:25;;;;;;;4.40;0.82;;;21.10;99.90;;;;;;4992993;28;20190;-82
2022/03/20 09:57:59;;;;;;;11.00;1.08;;;21.20;99.90;;;;;;4984728;28;20246;-83
2022/03/20 10:00:32;;;;;;;6.63;1.05;;;21.10;99.90;;;;;;4989139;28;20187;-83
2022/03/20 10:03:15;;;;;;;5.80;1.00;;;21.10;99.90;;;;;;4992382;28;20279;-84
2022/03/20 10:05:46;;;;;;;4.80;0.90;;;21.10;99.90;;;;;;4992039;28;20188;-83
2022/03/20 10:08:17;;;;;;;7.05;1.30;;;21.00;99.90;;;;;;4986755;28;20635;-84
2022/03/20 10:10:48;;;;;;;7.22;1.00;;;21.00;99.90;;;;;;4988977;28;20234;-83
2022/03/20 10:13:19;;;;;;;4.40;0.80;;;21.00;99.90;;;;;;4993158;28;20268;-82
2022/03/20 10:15:51;;;;;;;4.90;1.10;;;21.00;99.90;;;;;;4993471;28;20598;-84
2022/03/20 10:18:23;;;;;;;3.13;1.00;;;20.90;99.90;;;;;;4984913;28;20184;-86
2022/03/20 10:20:55;;;;;;;4.38;1.10;;;20.80;99.90;;;;;;4987323;28;20223;-85
2022/03/20 10:23:34;;;;;;;5.15;0.90;;;20.90;99.90;;;;;;4991610;28;20647;-86
2022/03/20 10:26:08;;;;;;;5.32;0.98;;;20.80;99.90;;;;;;4988551;28;20701;-79
2022/03/20 10:28:40;;;;;;;5.05;1.20;;;20.80;99.90;;;;;;4991422;28;20196;-86
2022/03/20 10:31:15;;;;;;;6.80;1.30;;;20.80;99.90;;;;;;4987261;28;20192;-85
2022/03/20 10:33:46;;;;;;;6.22;0.95;;;20.80;99.90;;;;;;4988607;28;20195;-85
2022/03/20 10:36:19;;;;;;;10.80;1.27;;;20.80;99.90;;;;;;4986130;28;20192;-86
2022/03/20 10:38:51;;;;;;;6.85;1.05;;;20.70;99.90;;;;;;4984582;28;20270;-84
2022/03/20 10:41:24;;;;;;;6.13;1.17;;;20.70;99.90;;;;;;4989274;28;20220;-86
2022/03/20 10:43:55;;;;;;;4.97;0.90;;;20.70;99.90;;;;;;4988813;28;20710;-86
2022/03/20 10:46:32;;;;;;;4.25;0.85;;;20.70;99.90;;;;;;4988862;28;20231;-80
2022/03/20 10:49:04;;;;;;;6.55;1.30;;;20.70;99.90;;;;;;4989557;28;20199;-82
2022/03/20 10:51:42;;;;;;;5.35;1.30;;;20.70;99.90;;;;;;4991075;28;20210;-82
2022/03/20 10:54:13;;;;;;;6.28;1.10;;;20.70;99.90;;;;;;4991415;28;20254;-85
2022/03/20 10:56:56;;;;;;;3.97;1.10;;;20.70;99.90;;;;;;4984206;28;20184;-86
2022/03/20 10:59:27;;;;;;;4.20;1.52;;;20.70;99.90;;;;;;4985475;28;20188;-86
2022/03/20 11:02:00;;;;;;;6.45;1.40;;;20.70;99.90;;;;;;4991897;28;20219;-84
2022/03/20 11:04:31;;;;;;;5.03;1.05;;;20.70;99.90;;;;;;4992461;28;20203;-84
2022/03/20 11:07:07;;;;;;;3.85;0.90;;;20.60;99.90;;;;;;4992414;28;20196;-85
2022/03/20 11:09:37;;;;;;;5.07;1.20;;;20.50;99.90;;;;;;4991177;28;20191;-84
2022/03/20 11:12:10;;;;;;;4.85;1.15;;;20.50;99.90;;;;;;4992192;28;20196;-85
2022/03/20 11:14:41;;;;;;;4.78;1.08;;;20.50;99.90;;;;;;4994026;28;20242;-86
2022/03/20 11:17:17;;;;;;;5.28;1.27;;;20.50;99.90;;;;;;4993371;28;20187;-83
2022/03/20 11:19:55;;;;;;;5.68;1.27;;;20.50;99.90;;;;;;4995681;28;20654;-84
2022/03/20 11:22:26;;;;;;;5.68;1.20;;;20.40;99.90;;;;;;4991756;28;20216;-85
2022/03/20 11:24:58;;;;;;;4.95;1.10;;;20.50;99.90;;;;;;4994797;28;20192;-85
2022/03/20 11:27:31;;;;;;;7.13;1.27;;;20.50;99.90;;;;;;4995341;28;20203;-82
2022/03/20 11:30:06;;;;;;;7.15;1.10;;;20.50;99.90;;;;;;4993882;28;20196;-85
2022/03/20 11:32:39;;;;;;;5.78;1.08;;;20.50;99.90;;;;;;4989966;28;20575;-76
2022/03/20 11:35:11;;;;;;;5.70;1.15;;;20.40;99.90;;;;;;4995116;28;20192;-79
2022/03/20 11:37:48;;;;;;;6.07;1.23;;;20.40;99.90;;;;;;4988594;28;20184;-77
2022/03/20 11:40:21;;;;;;;7.40;1.60;;;20.40;99.90;;;;;;4996058;28;20196;-78
2022/03/20 11:42:52;;;;;;;6.97;1.45;;;20.40;99.90;;;;;;4994274;28;20227;-78
2022/03/20 11:45:24;;;;;;;7.55;1.30;;;20.40;99.90;;;;;;4992295;28;20234;-78
2022/03/20 11:48:16;;;;;;;6.82;1.30;;;20.40;99.90;;;;;;4995146;28;20199;-77
2022/03/20 11:50:49;;;;;;;6.30;1.30;;;20.40;99.90;;;;;;4991443;28;20189;-77
2022/03/20 11:53:31;;;;;;;4.38;1.20;;;20.30;99.90;;;;;;4995762;28;20245;-78
2022/03/20 11:56:01;;;;;;;6.22;1.40;;;20.40;99.90;;;;;;4990864;28;20535;-76
2022/03/20 11:58:40;;;;;;;3.10;0.95;;;20.30;99.90;;;;;;4989513;28;20643;-77
2022/03/20 12:01:12;;;;;;;6.68;1.58;;;20.30;99.90;;;;;;4994898;28;20283;-78
2022/03/20 12:03:54;;;;;;;7.03;1.30;;;20.30;99.90;;;;;;4994547;28;20706;-85
2022/03/20 12:07:02;;;;;;;6.15;1.30;;;20.30;99.90;;;;;;4987080;28;20192;-81
2022/03/20 12:09:51;;;;;;;5.80;1.40;;;20.20;99.90;;;;;;4992693;28;20187;-82
2022/03/20 12:12:44;;;;;;;5.18;1.33;;;20.20;99.90;;;;;;4994126;28;20288;-85
2022/03/20 12:15:15;;;;;;;7.78;1.40;;;20.10;99.90;;;;;;4994554;28;20282;-83
2022/03/20 12:18:02;;;;;;;9.80;1.65;;;20.20;99.90;;;;;;4993790;28;20242;-83
2022/03/20 12:21:02;;;;;;;8.30;1.80;;;20.10;99.90;;;;;;4993791;28;20184;-81
2022/03/20 12:23:50;;;;;;;6.13;1.63;;;20.10;99.90;;;;;;4988985;28;20190;-78
2022/03/20 12:26:34;;;;;;;7.20;1.50;;;20.10;99.90;;;;;;4993334;28;20198;-80
2022/03/20 12:29:32;;;;;;;5.18;1.35;;;20.10;99.90;;;;;;4993650;28;20199;-81
2022/03/20 12:32:05;;;;;;;5.53;1.58;;;20.00;99.90;;;;;;4993761;28;20670;-83
2022/03/20 12:34:36;;;;;;;9.45;2.13;;;20.00;99.90;;;;;;4986174;28;20189;-78
2022/03/20 12:37:42;;;;;;;7.43;1.70;;;20.00;99.90;;;;;;4986192;28;20247;-77
2022/03/20 12:40:16;;;;;;;6.70;1.77;;;20.00;99.90;;;;;;4990182;28;20251;-77
2022/03/20 12:42:58;;;;;;;7.32;1.98;;;20.00;99.90;;;;;;4991755;28;20692;-79
2022/03/20 12:45:30;;;;;;;12.00;1.85;;;20.00;99.90;;;;;;4986647;28;20226;-84
2022/03/20 12:48:02;;;;;;;5.97;1.92;;;20.00;99.90;;;;;;4993370;28;20269;-76
2022/03/20 12:50:35;;;;;;;6.57;1.80;;;19.90;99.90;;;;;;4993346;28;20188;-79
2022/03/20 12:53:14;;;;;;;8.30;2.08;;;20.00;99.90;;;;;;4994216;28;20200;-77
2022/03/20 12:55:48;;;;;;;7.05;1.67;;;19.90;99.90;;;;;;4987018;28;20238;-78
2022/03/20 12:58:21;;;;;;;6.75;1.77;;;19.90;99.90;;;;;;4994080;28;20330;-78
2022/03/20 13:00:52;;;;;;;7.15;1.58;;;19.90;99.90;;;;;;4989476;28;20280;-83
2022/03/20 13:03:25;;;;;;;4.80;1.48;;;19.90;99.90;;;;;;4992815;28;20216;-77
2022/03/20 13:05:57;;;;;;;8.13;1.67;;;19.90;99.90;;;;;;4993041;28;20191;-78
2022/03/20 13:08:30;;;;;;;6.85;1.75;;;19.90;99.90;;;;;;4993083;28;20188;-76
2022/03/20 13:11:03;;;;;;;9.55;1.60;;;19.90;99.90;;;;;;4987632;28;20195;-78
2022/03/20 13:13:35;;;;;;;7.30;1.48;;;19.90;99.90;;;;;;4993422;28;20594;-78
2022/03/20 13:16:07;;;;;;;9.43;1.52;;;19.80;99.90;;;;;;4993101;28;20286;-79
2022/03/20 13:18:38;;;;;;;9.32;1.38;;;19.80;99.90;;;;;;4992539;28;20191;-76
2022/03/20 13:21:09;;;;;;;9.82;1.60;;;19.90;99.90;;;;;;4993293;28;20650;-77
2022/03/20 13:23:46;;;;;;;5.93;1.40;;;19.80;99.90;;;;;;4986794;28;20223;-77
2022/03/20 13:26:19;;;;;;;6.10;1.23;;;19.80;99.90;;;;;;4992669;28;20187;-78
2022/03/20 13:28:51;;;;;;;4.05;1.30;;;19.80;99.90;;;;;;4993642;28;20284;-78
2022/03/20 13:31:22;;;;;;;5.25;1.20;;;19.70;99.90;;;;;;4991348;28;20266;-78
2022/03/20 13:33:54;;;;;;;7.90;1.40;;;19.70;99.90;;;;;;4992570;28;20231;-79
2022/03/20 13:36:26;;;;;;;6.20;1.42;;;19.70;99.90;;;;;;4992544;28;20195;-79
2022/03/20 13:38:59;;;;;;;9.77;1.75;;;19.70;99.90;;;;;;4991836;28;20192;-80
2022/03/20 13:41:30;;;;;;;4.22;1.40;;;19.70;99.90;;;;;;4992059;28;20191;-76
2022/03/20 13:44:03;;;;;;;8.48;1.67;;;19.70;99.90;;;;;;4992511;28;20286;-77
2022/03/20 13:46:35;;;;;;;9.48;1.42;;;19.70;99.90;;;;;;4993262;28;20187;-80